Wetterdaten: Woche 26.07.10 - 01.08.10 (KW30)
Datum Zeit Temperatur Luftfeuchte Luftdruck Niederschlag Windrichtung Sonnenschein Solar Wind
26.07.2010 00:00 13,6 C 88 % 1014,7 hPa 0,2 l/m N-NO 0,00 h 0 W/m 2,8 km/h (1 Bft)
26.07.2010 01:00 13,3 C 90 % 1014,5 hPa 0,0 l/m N 0,00 h 0 W/m 1,7 km/h (1 Bft)
26.07.2010 02:00 13,2 C 91 % 1014,1 hPa 0,0 l/m N 0,00 h 0 W/m 1,6 km/h (1 Bft)
26.07.2010 03:00 12,9 C 92 % 1013,7 hPa 0,0 l/m N 0,00 h 0 W/m 0,9 km/h (0 Bft)
26.07.2010 04:00 12,6 C 92 % 1013,5 hPa 0,0 l/m N 0,00 h 0 W/m 0,7 km/h (0 Bft)
26.07.2010 05:00 12,6 C 93 % 1013,4 hPa 0,0 l/m N 0,00 h 0 W/m 0,4 km/h (0 Bft)
26.07.2010 06:00 12,8 C 94 % 1013,3 hPa 0,0 l/m N 0,58 h 64 W/m 1,6 km/h (1 Bft)
26.07.2010 07:00 13,8 C 91 % 1012,9 hPa 0,0 l/m SW 0,67 h 150 W/m 4,0 km/h (1 Bft)
26.07.2010 08:00 14,5 C 85 % 1013,1 hPa 0,0 l/m W-NW 0,42 h 256 W/m 7,4 km/h (2 Bft)
26.07.2010 09:00 15,9 C 79 % 1013,2 hPa 0,0 l/m W 0,50 h 398 W/m 10,8 km/h (2 Bft)
26.07.2010 10:00 15,5 C 81 % 1013,3 hPa 0,0 l/m W-SW 0,00 h 197 W/m 9,5 km/h (2 Bft)
26.07.2010 11:00 16,0 C 79 % 1013,3 hPa 0,0 l/m W-NW 0,00 h 313 W/m 13,7 km/h (3 Bft)
26.07.2010 12:00 16,2 C 79 % 1013,1 hPa 0,0 l/m W-SW 0,00 h 333 W/m 14,5 km/h (3 Bft)
26.07.2010 13:00 17,2 C 75 % 1012,7 hPa 0,0 l/m W-SW 0,33 h 415 W/m 15,2 km/h (3 Bft)
26.07.2010 14:00 17,9 C 72 % 1012,5 hPa 0,0 l/m W 0,58 h 492 W/m 16,4 km/h (3 Bft)
26.07.2010 15:00 18,6 C 71 % 1012,1 hPa 0,0 l/m S-SW 0,67 h 574 W/m 20,4 km/h (4 Bft)
26.07.2010 16:00 18,8 C 71 % 1011,5 hPa 0,0 l/m SW 0,33 h 411 W/m 22,9 km/h (4 Bft)
26.07.2010 17:00 19,0 C 70 % 1010,9 hPa 0,0 l/m S-SW 0,75 h 393 W/m 20,5 km/h (4 Bft)
26.07.2010 18:00 17,2 C 78 % 1011,4 hPa 0,2 l/m W 0,00 h 21 W/m 11,1 km/h (2 Bft)
26.07.2010 19:00 16,1 C 90 % 1011,4 hPa 0,4 l/m S-SW 0,00 h 50 W/m 2,9 km/h (1 Bft)
26.07.2010 20:00 15,7 C 92 % 1011,4 hPa 0,0 l/m W-SW 0,00 h 11 W/m 4,8 km/h (1 Bft)
26.07.2010 21:00 14,7 C 93 % 1012,3 hPa 5,0 l/m W 0,00 h 0 W/m 9,7 km/h (2 Bft)
26.07.2010 22:00 13,7 C 96 % 1012,5 hPa 2,4 l/m S-SW 0,00 h 0 W/m 3,9 km/h (1 Bft)
26.07.2010 23:00 13,3 C 97 % 1012,4 hPa 1,4 l/m S-SW 0,00 h 0 W/m 5,7 km/h (1 Bft)
27.07.2010 00:00 13,3 C 97 % 1012,3 hPa 0,0 l/m SW 0,00 h 0 W/m 7,8 km/h (2 Bft)
27.07.2010 01:00 13,4 C 97 % 1012,1 hPa 0,2 l/m W-NW 0,00 h 0 W/m 10,9 km/h (2 Bft)
27.07.2010 02:00 13,4 C 97 % 1012,0 hPa 0,0 l/m W-NW 0,00 h 0 W/m 8,9 km/h (2 Bft)
27.07.2010 03:00 13,3 C 97 % 1012,1 hPa 0,0 l/m W 0,00 h 0 W/m 7,4 km/h (2 Bft)
27.07.2010 04:00 13,3 C 97 % 1012,6 hPa 0,2 l/m W-NW 0,00 h 0 W/m 6,7 km/h (2 Bft)
27.07.2010 05:00 13,2 C 96 % 1013,1 hPa 0,4 l/m W-NW 0,00 h 0 W/m 5,9 km/h (2 Bft)
27.07.2010 06:00 12,8 C 96 % 1013,6 hPa 0,0 l/m W 0,00 h 15 W/m 7,1 km/h (2 Bft)
27.07.2010 07:00 13,2 C 96 % 1014,3 hPa 0,0 l/m W-NW 0,00 h 73 W/m 7,0 km/h (2 Bft)
27.07.2010 08:00 13,9 C 95 % 1014,9 hPa 0,0 l/m W-NW 0,00 h 125 W/m 7,8 km/h (2 Bft)
27.07.2010 09:00 14,8 C 90 % 1015,4 hPa 0,0 l/m W 0,25 h 274 W/m 9,8 km/h (2 Bft)
27.07.2010 10:00 15,2 C 88 % 1015,7 hPa 0,0 l/m W 0,17 h 255 W/m 12,5 km/h (3 Bft)
27.07.2010 11:00 15,9 C 82 % 1016,1 hPa 0,0 l/m NW 0,08 h 272 W/m 14,5 km/h (3 Bft)
27.07.2010 12:00 16,9 C 77 % 1016,3 hPa 0,0 l/m W-NW 0,17 h 443 W/m 16,2 km/h (3 Bft)
27.07.2010 13:00 17,2 C 73 % 1016,4 hPa 0,0 l/m N-NW 0,17 h 426 W/m 14,6 km/h (3 Bft)
27.07.2010 14:00 17,9 C 69 % 1016,4 hPa 0,0 l/m NW 0,25 h 339 W/m 13,6 km/h (3 Bft)
27.07.2010 15:00 16,9 C 82 % 1016,6 hPa 0,0 l/m S-SW 0,00 h 246 W/m 16,1 km/h (3 Bft)
27.07.2010 16:00 16,7 C 82 % 1016,9 hPa 0,0 l/m SW 0,33 h 346 W/m 18,1 km/h (3 Bft)
27.07.2010 17:00 17,0 C 79 % 1017,0 hPa 0,0 l/m W-SW 0,25 h 216 W/m 16,6 km/h (3 Bft)
27.07.2010 18:00 17,2 C 81 % 1017,0 hPa 0,0 l/m W-SW 0,25 h 181 W/m 12,8 km/h (3 Bft)
27.07.2010 19:00 16,8 C 83 % 1017,1 hPa 0,0 l/m SW 0,00 h 62 W/m 8,2 km/h (2 Bft)
27.07.2010 20:00 16,5 C 86 % 1017,4 hPa 0,0 l/m SW 0,08 h 16 W/m 1,7 km/h (1 Bft)
27.07.2010 21:00 15,4 C 90 % 1017,9 hPa 0,0 l/m N 0,00 h 0 W/m 0,1 km/h (0 Bft)
27.07.2010 22:00 14,5 C 91 % 1018,3 hPa 0,0 l/m N 0,00 h 0 W/m 0,0 km/h (0 Bft)
27.07.2010 23:00 14,4 C 93 % 1018,5 hPa 0,0 l/m N 0,00 h 0 W/m 0,8 km/h (0 Bft)
28.07.2010 00:00 13,4 C 95 % 1018,4 hPa 0,0 l/m N 0,00 h 0 W/m 0,1 km/h (0 Bft)
28.07.2010 01:00 12,4 C 96 % 1018,4 hPa 0,0 l/m N 0,00 h 0 W/m 0,0 km/h (0 Bft)
28.07.2010 02:00 12,1 C 97 % 1018,0 hPa 0,0 l/m N 0,00 h 0 W/m 0,0 km/h (0 Bft)
28.07.2010 03:00 12,0 C 97 % 1017,9 hPa 0,0 l/m N 0,00 h 0 W/m 0,0 km/h (0 Bft)
28.07.2010 04:00 11,5 C 97 % 1017,7 hPa 0,0 l/m N 0,00 h 0 W/m 0,0 km/h (0 Bft)
28.07.2010 05:00 11,5 C 97 % 1017,6 hPa 0,0 l/m N 0,00 h 6 W/m 0,0 km/h (0 Bft)
28.07.2010 06:00 11,8 C 97 % 1017,6 hPa 0,0 l/m N 0,17 h 28 W/m 0,0 km/h (0 Bft)
28.07.2010 07:00 13,1 C 97 % 1017,4 hPa 0,0 l/m SO 0,00 h 92 W/m 7,4 km/h (2 Bft)
28.07.2010 08:00 14,4 C 94 % 1017,3 hPa 0,0 l/m S-SW 0,00 h 164 W/m 10,8 km/h (2 Bft)
28.07.2010 09:00 15,9 C 91 % 1017,0 hPa 0,0 l/m SW 0,08 h 258 W/m 13,8 km/h (3 Bft)
28.07.2010 10:00 18,1 C 81 % 1016,8 hPa 0,0 l/m SW 0,58 h 442 W/m 16,9 km/h (3 Bft)
28.07.2010 11:00 18,4 C 74 % 1016,8 hPa 0,0 l/m W-SW 0,17 h 335 W/m 16,4 km/h (3 Bft)
28.07.2010 12:00 18,7 C 74 % 1016,7 hPa 0,0 l/m W-SW 0,00 h 336 W/m 18,4 km/h (3 Bft)
28.07.2010 13:00 16,6 C 88 % 1016,9 hPa 1,6 l/m W-SW 0,00 h 192 W/m 14,8 km/h (3 Bft)
28.07.2010 14:00 15,4 C 95 % 1016,5 hPa 1,0 l/m SW 0,00 h 205 W/m 12,9 km/h (3 Bft)
28.07.2010 15:00 15,9 C 94 % 1016,3 hPa 0,0 l/m W-SW 0,00 h 266 W/m 16,1 km/h (3 Bft)
28.07.2010 16:00 16,2 C 93 % 1015,7 hPa 0,0 l/m SW 0,00 h 208 W/m 18,0 km/h (3 Bft)
28.07.2010 17:00 16,2 C 93 % 1015,1 hPa 0,2 l/m SW 0,08 h 189 W/m 17,6 km/h (3 Bft)
28.07.2010 18:00 16,9 C 91 % 1014,7 hPa 0,0 l/m SW 0,00 h 133 W/m 14,2 km/h (3 Bft)
28.07.2010 19:00 16,5 C 91 % 1014,3 hPa 0,0 l/m W-SW 0,00 h 55 W/m 12,9 km/h (3 Bft)
28.07.2010 20:00 16,2 C 93 % 1014,4 hPa 0,0 l/m W 0,08 h 19 W/m 10,3 km/h (2 Bft)
28.07.2010 21:00 15,9 C 94 % 1014,4 hPa 0,0 l/m W-SW 0,00 h 0 W/m 7,9 km/h (2 Bft)
28.07.2010 22:00 15,9 C 94 % 1014,4 hPa 0,2 l/m W-NW 0,00 h 0 W/m 7,4 km/h (2 Bft)
28.07.2010 23:00 15,7 C 95 % 1013,9 hPa 0,0 l/m W-SW 0,00 h 0 W/m 9,8 km/h (2 Bft)
29.07.2010 00:00 15,5 C 95 % 1013,3 hPa 0,0 l/m SW 0,00 h 0 W/m 8,6 km/h (2 Bft)
29.07.2010 01:00 15,0 C 96 % 1012,9 hPa 0,0 l/m S-SW 0,00 h 0 W/m 5,3 km/h (1 Bft)
29.07.2010 02:00 14,6 C 98 % 1012,4 hPa 0,0 l/m S-SO 0,00 h 0 W/m 2,9 km/h (1 Bft)
29.07.2010 03:00 14,6 C 98 % 1011,3 hPa 0,2 l/m S-SW 0,00 h 0 W/m 5,7 km/h (1 Bft)
29.07.2010 04:00 15,0 C 99 % 1010,4 hPa 0,0 l/m S-SW 0,00 h 0 W/m 7,8 km/h (2 Bft)
29.07.2010 05:00 15,1 C 99 % 1009,4 hPa 0,0 l/m N 0,00 h 0 W/m 1,6 km/h (1 Bft)
29.07.2010 06:00 15,3 C 99 % 1009,2 hPa 0,0 l/m W-SW 0,00 h 8 W/m 4,5 km/h (1 Bft)
29.07.2010 07:00 14,2 C 96 % 1009,4 hPa 3,2 l/m W-NW 0,00 h 24 W/m 12,2 km/h (2 Bft)
29.07.2010 08:00 13,6 C 97 % 1010,1 hPa 0,0 l/m S-SW 0,00 h 105 W/m 6,2 km/h (2 Bft)
29.07.2010 09:00 14,3 C 97 % 1010,0 hPa 0,0 l/m SW 0,08 h 163 W/m 12,0 km/h (2 Bft)
29.07.2010 10:00 14,4 C 97 % 1009,9 hPa 0,0 l/m SW 0,00 h 175 W/m 10,7 km/h (2 Bft)
29.07.2010 11:00 15,2 C 96 % 1009,7 hPa 0,0 l/m S-SW 0,00 h 198 W/m 11,2 km/h (2 Bft)
29.07.2010 12:00 16,6 C 92 % 1009,7 hPa 0,0 l/m SW 0,25 h 431 W/m 18,8 km/h (3 Bft)
29.07.2010 13:00 17,4 C 87 % 1009,3 hPa 0,0 l/m SW 0,50 h 523 W/m 22,9 km/h (4 Bft)
29.07.2010 14:00 15,3 C 93 % 1009,8 hPa 3,4 l/m W-SW 0,00 h 259 W/m 23,5 km/h (4 Bft)
29.07.2010 15:00 16,4 C 88 % 1009,7 hPa 0,0 l/m W 0,83 h 661 W/m 22,1 km/h (4 Bft)
29.07.2010 16:00 17,0 C 80 % 1009,9 hPa 1,4 l/m W-SW 0,33 h 317 W/m 17,7 km/h (3 Bft)
29.07.2010 17:00 13,3 C 92 % 1010,6 hPa 0,0 l/m N 0,00 h 69 W/m 2,9 km/h (1 Bft)
29.07.2010 18:00 13,9 C 94 % 1010,7 hPa 0,0 l/m S-SW 0,42 h 203 W/m 6,0 km/h (2 Bft)
29.07.2010 19:00 13,8 C 94 % 1011,0 hPa 0,2 l/m SW 0,17 h 65 W/m 13,4 km/h (3 Bft)
29.07.2010 20:00 13,1 C 95 % 1011,1 hPa 0,0 l/m SW 0,00 h 25 W/m 7,1 km/h (2 Bft)
29.07.2010 21:00 12,6 C 96 % 1011,8 hPa 0,0 l/m W-SW 0,00 h 0 W/m 8,0 km/h (2 Bft)
29.07.2010 22:00 12,4 C 95 % 1012,1 hPa 0,0 l/m SW 0,00 h 0 W/m 9,8 km/h (2 Bft)
29.07.2010 23:00 12,1 C 95 % 1012,1 hPa 0,0 l/m W-SW 0,00 h 0 W/m 7,3 km/h (2 Bft)
30.07.2010 00:00 11,8 C 96 % 1012,3 hPa 0,0 l/m S 0,00 h 0 W/m 3,9 km/h (1 Bft)
30.07.2010 01:00 12,0 C 97 % 1012,3 hPa 0,0 l/m N 0,00 h 0 W/m 2,7 km/h (1 Bft)
30.07.2010 02:00 12,2 C 97 % 1012,1 hPa 0,0 l/m N 0,00 h 0 W/m 0,8 km/h (0 Bft)
30.07.2010 03:00 12,2 C 97 % 1012,1 hPa 0,0 l/m N 0,00 h 0 W/m 0,8 km/h (0 Bft)
30.07.2010 04:00 12,1 C 96 % 1012,1 hPa 0,0 l/m N 0,00 h 0 W/m 2,3 km/h (1 Bft)
30.07.2010 05:00 12,0 C 96 % 1012,2 hPa 0,2 l/m NW 0,00 h 0 W/m 3,3 km/h (1 Bft)
30.07.2010 06:00 11,6 C 94 % 1012,4 hPa 0,0 l/m N 0,00 h 22 W/m 1,2 km/h (1 Bft)
30.07.2010 07:00 11,5 C 95 % 1013,0 hPa 0,2 l/m W-NW 0,00 h 43 W/m 4,8 km/h (1 Bft)
30.07.2010 08:00 12,3 C 95 % 1013,7 hPa 0,0 l/m W-NW 0,17 h 163 W/m 3,5 km/h (1 Bft)
30.07.2010 09:00 13,5 C 90 % 1014,2 hPa 0,0 l/m W-NW 0,00 h 228 W/m 3,2 km/h (1 Bft)
30.07.2010 10:00 14,6 C 84 % 1014,4 hPa 0,0 l/m S-SW 0,25 h 375 W/m 5,9 km/h (2 Bft)
30.07.2010 11:00 13,9 C 87 % 1014,6 hPa 2,6 l/m N-NO 0,00 h 131 W/m 5,1 km/h (1 Bft)
30.07.2010 12:00 15,0 C 86 % 1014,7 hPa 0,0 l/m S 0,50 h 570 W/m 8,9 km/h (2 Bft)
30.07.2010 13:00 15,3 C 87 % 1014,8 hPa 0,2 l/m SW 0,17 h 402 W/m 11,8 km/h (2 Bft)
30.07.2010 14:00 15,9 C 83 % 1014,8 hPa 0,0 l/m SW 0,08 h 298 W/m 9,7 km/h (2 Bft)
30.07.2010 15:00 15,9 C 85 % 1015,1 hPa 0,0 l/m SW 0,33 h 393 W/m 10,2 km/h (2 Bft)
30.07.2010 16:00 17,4 C 70 % 1015,1 hPa 0,0 l/m W-SW 0,83 h 500 W/m 8,2 km/h (2 Bft)
30.07.2010 17:00 16,9 C 74 % 1015,3 hPa 0,0 l/m W 0,17 h 201 W/m 6,5 km/h (2 Bft)
30.07.2010 18:00 16,7 C 78 % 1015,5 hPa 0,0 l/m W-NW 0,00 h 133 W/m 5,2 km/h (1 Bft)
30.07.2010 19:00 16,0 C 80 % 1015,8 hPa 0,0 l/m W-NW 0,08 h 76 W/m 4,5 km/h (1 Bft)
30.07.2010 20:00 15,1 C 85 % 1016,0 hPa 0,0 l/m N 0,00 h 17 W/m 1,5 km/h (1 Bft)
30.07.2010 21:00 12,9 C 94 % 1016,4 hPa 0,0 l/m N 0,00 h 0 W/m 0,4 km/h (0 Bft)
30.07.2010 22:00 11,8 C 96 % 1016,6 hPa 0,0 l/m N 0,00 h 0 W/m 0,1 km/h (0 Bft)
30.07.2010 23:00 11,3 C 96 % 1016,8 hPa 0,0 l/m N 0,00 h 0 W/m 0,0 km/h (0 Bft)
31.07.2010 00:00 11,0 C 96 % 1016,8 hPa 0,0 l/m N 0,00 h 0 W/m 0,0 km/h (0 Bft)
31.07.2010 01:00 10,6 C 96 % 1016,5 hPa 0,0 l/m N 0,00 h 0 W/m 0,0 km/h (0 Bft)
31.07.2010 02:00 10,2 C 95 % 1016,4 hPa 0,0 l/m N 0,00 h 0 W/m 0,0 km/h (0 Bft)
31.07.2010 03:00 9,8 C 96 % 1016,4 hPa 0,0 l/m N 0,00 h 0 W/m 0,0 km/h (0 Bft)
31.07.2010 04:00 9,4 C 96 % 1016,3 hPa 0,0 l/m N 0,00 h 0 W/m 0,0 km/h (0 Bft)
31.07.2010 05:00 8,8 C 95 % 1016,3 hPa 0,0 l/m N 0,00 h 0 W/m 0,0 km/h (0 Bft)
31.07.2010 06:00 8,2 C 95 % 1016,6 hPa 0,2 l/m N 0,08 h 25 W/m 0,0 km/h (0 Bft)
31.07.2010 07:00 9,4 C 98 % 1016,9 hPa 0,0 l/m N 0,67 h 174 W/m 0,0 km/h (0 Bft)
31.07.2010 08:00 12,5 C 94 % 1017,0 hPa 0,0 l/m N 1,00 h 364 W/m 0,0 km/h (0 Bft)
31.07.2010 09:00 15,5 C 81 % 1017,1 hPa 0,0 l/m N 1,00 h 535 W/m 0,0 km/h (0 Bft)
31.07.2010 10:00 17,8 C 72 % 1016,9 hPa 0,0 l/m N 1,00 h 677 W/m 0,0 km/h (0 Bft)
31.07.2010 11:00 19,6 C 60 % 1016,9 hPa 0,0 l/m O-SO 1,00 h 783 W/m 8,0 km/h (2 Bft)
31.07.2010 12:00 20,8 C 53 % 1016,6 hPa 0,0 l/m O 1,00 h 846 W/m 8,7 km/h (2 Bft)
31.07.2010 13:00 21,7 C 47 % 1016,1 hPa 0,0 l/m O-SO 1,00 h 862 W/m 6,2 km/h (2 Bft)
31.07.2010 14:00 22,4 C 43 % 1015,7 hPa 0,0 l/m O-SO 1,00 h 831 W/m 5,9 km/h (2 Bft)
31.07.2010 15:00 23,1 C 43 % 1015,3 hPa 0,0 l/m O-SO 1,00 h 757 W/m 5,1 km/h (1 Bft)
31.07.2010 16:00 23,6 C 42 % 1015,0 hPa 0,0 l/m O-SO 1,00 h 641 W/m 5,9 km/h (2 Bft)
31.07.2010 17:00 23,5 C 40 % 1014,7 hPa 0,0 l/m W 1,00 h 499 W/m 4,5 km/h (1 Bft)
31.07.2010 18:00 23,4 C 38 % 1014,4 hPa 0,0 l/m S-SW 0,83 h 313 W/m 2,7 km/h (1 Bft)
31.07.2010 19:00 21,8 C 52 % 1014,4 hPa 0,0 l/m N 0,17 h 80 W/m 0,4 km/h (0 Bft)
31.07.2010 20:00 18,2 C 73 % 1014,6 hPa 0,0 l/m N 0,00 h 12 W/m 0,0 km/h (0 Bft)
31.07.2010 21:00 16,0 C 77 % 1015,1 hPa 0,0 l/m N 0,00 h 0 W/m 0,3 km/h (0 Bft)
31.07.2010 22:00 14,7 C 84 % 1015,4 hPa 0,0 l/m N 0,00 h 0 W/m 0,0 km/h (0 Bft)
31.07.2010 23:00 13,6 C 88 % 1015,6 hPa 0,0 l/m N 0,00 h 0 W/m 0,0 km/h (0 Bft)
01.08.2010 00:00 12,8 C 90 % 1015,4 hPa 0,0 l/m N 0,00 h 0 W/m 0,0 km/h (0 Bft)
01.08.2010 01:00 12,1 C 93 % 1015,5 hPa 0,0 l/m N 0,00 h 0 W/m 0,0 km/h (0 Bft)
01.08.2010 02:00 11,6 C 94 % 1015,4 hPa 0,0 l/m N 0,00 h 0 W/m 0,0 km/h (0 Bft)
01.08.2010 03:00 11,2 C 95 % 1015,1 hPa 0,0 l/m N 0,00 h 0 W/m 0,0 km/h (0 Bft)
01.08.2010 04:00 10,9 C 95 % 1014,9 hPa 0,0 l/m N 0,00 h 0 W/m 0,0 km/h (0 Bft)
01.08.2010 05:00 10,7 C 96 % 1014,9 hPa 0,0 l/m N 0,00 h 0 W/m 0,0 km/h (0 Bft)
01.08.2010 06:00 10,7 C 96 % 1015,2 hPa 0,0 l/m N 0,08 h 22 W/m 0,0 km/h (0 Bft)
01.08.2010 07:00 12,5 C 94 % 1015,4 hPa 0,0 l/m N 1,00 h 196 W/m 0,0 km/h (0 Bft)
01.08.2010 08:00 16,6 C 81 % 1015,3 hPa 0,0 l/m N 1,00 h 368 W/m 0,0 km/h (0 Bft)
01.08.2010 09:00 20,2 C 68 % 1015,1 hPa 0,0 l/m S-SW 1,00 h 523 W/m 1,9 km/h (1 Bft)
01.08.2010 10:00 21,4 C 64 % 1015,0 hPa 0,0 l/m S-SO 1,00 h 662 W/m 9,7 km/h (2 Bft)
01.08.2010 11:00 23,6 C 61 % 1014,8 hPa 0,0 l/m S-SW 1,00 h 789 W/m 11,9 km/h (2 Bft)
01.08.2010 12:00 24,6 C 55 % 1014,6 hPa 0,0 l/m SW 0,58 h 666 W/m 15,8 km/h (3 Bft)
01.08.2010 13:00 26,0 C 49 % 1014,2 hPa 0,0 l/m SW 1,00 h 842 W/m 17,8 km/h (3 Bft)
01.08.2010 14:00 26,7 C 50 % 1013,8 hPa 0,0 l/m W-SW 1,00 h 808 W/m 17,8 km/h (3 Bft)
01.08.2010 15:00 27,1 C 48 % 1013,4 hPa 0,0 l/m W-SW 1,00 h 735 W/m 15,4 km/h (3 Bft)
01.08.2010 16:00 27,4 C 48 % 1012,9 hPa 0,0 l/m W-SW 1,00 h 617 W/m 13,2 km/h (3 Bft)
01.08.2010 17:00 27,5 C 48 % 1012,4 hPa 0,0 l/m S-SW 1,00 h 473 W/m 11,2 km/h (2 Bft)
01.08.2010 18:00 27,0 C 49 % 1012,0 hPa 0,0 l/m W-SW 0,83 h 292 W/m 10,1 km/h (2 Bft)
01.08.2010 19:00 25,3 C 59 % 1012,0 hPa 0,0 l/m SW 0,33 h 80 W/m 4,0 km/h (1 Bft)
01.08.2010 20:00 22,2 C 75 % 1011,9 hPa 0,0 l/m N 0,00 h 19 W/m 0,0 km/h (0 Bft)
01.08.2010 21:00 20,7 C 80 % 1012,3 hPa 0,0 l/m N-NW 0,00 h 0 W/m 2,1 km/h (1 Bft)
01.08.2010 22:00 20,4 C 78 % 1013,4 hPa 4,6 l/m W-NW 0,00 h 0 W/m 17,6 km/h (3 Bft)
01.08.2010 23:00 17,5 C 93 % 1014,7 hPa 1,8 l/m SW 0,00 h 0 W/m 13,0 km/h (3 Bft)
Min-Datum _ 31.07.10 31.07.10 29.07.10 - - - - 26.07.10
_ Min-Zeit 06:30 18:10 06:15 - - - - 00:20
Minimum _ 8,1 C 36 % 1009,0 hPa - - - - 0,0 km/h (0 Bft)
Max-Datum _ 01.08.10 28.07.10 27.07.10 26.07.10 - 26.07.10 27.07.10 01.08.10
_ Max-Zeit 16:30 07:00 23:30 21:20 - 06:25 12:35 22:35
Maximum _ 27,7 C 100 % 1018,6 hPa 5,0 l/m - 0,08 h 1179 W/m 53,1 km/h
W-NW (7 Bft)
Durchschnitt _ 15,6 C 85 % 1014,2 hPa #31,6 l/m SW #36:45 h 298 W/m 7,2 km/h (2 Bft)